Kezdőlap
METAR-TAF:

METAR-TAF

Repülőterek :

Gafsa, Tunézia

földrajzi szélesség: 34-25N, földrajzi hosszúság: 008-49E, magasság: 313 m

Jelenlegi meteorológiai megfigyelések

A jelentés 2 órával és 19 perccel ezelõtt készült, 05:00 UTC
Észak-északkeleti szél 16 kt
Hőmérséklet 18°C
Páratartalom 77%
Légköri nyomás 1017 hPa
Látótávolság: 8000 m

METAR: DTTF 230500Z 03016KT 8000 NSC 18/14 Q1017

Idő: 08:19 (07:19 UTC)

Előrejelzés

A jelentés 1 órával és 19 perccel ezelõtt készült, 06:00 UTC
Az előrejelzés 23-én 07 óra UTC és 23-én 16 óra UTC között érvényes
Észak-északkeleti szél 15 kt
Látótávolság: 8000 m
Kevés felhő 2300 lábon

TAF: DTTF 230600Z 2307/2316 03015KT 8000 FEW023

Meteorológiai megfigyelések és előrejelzések több, mint 4000 repülőtéren (METAR és TAF jelentéseket).

A térképen piros és sárga pontok jelzik az elérhető meteorológiai állomásokat.

Mozgassa az egeret a pont fölött, hogy megjelenjen az állomás neve.

Azután kattintson az időjárási megfigyelések és előrejelzések megtekintéséhez.

A térkép megváltoztatása: kattintson a fekete keresztel jelölt zöld gombra ráközelítéshez, a vonallal jelölt zöld gombra távolításhoz, vagy a zöld nyilakra a szomszédos térképek eléréséhez.


METAR-TAF: